createdAt,value
2022-08-17T00:00:01.610Z,101042.44
2022-08-17T00:05:04.350Z,101024.16
2022-08-17T00:09:54.000Z,101029.44
2022-08-17T00:14:43.686Z,101019.25
2022-08-17T00:19:34.149Z,100997.09
2022-08-17T00:24:27.823Z,101014.34
2022-08-17T00:29:19.854Z,101010.19
2022-08-17T00:34:10.675Z,100998.06
2022-08-17T00:39:00.378Z,100999.94
2022-08-17T00:43:54.594Z,100991.53
2022-08-17T00:48:45.568Z,100991.66
2022-08-17T00:53:37.745Z,100996.41
2022-08-17T00:58:36.302Z,101004.19
2022-08-17T01:03:29.182Z,100997.19
2022-08-17T01:08:22.283Z,100989.38
2022-08-17T01:13:12.554Z,100978.25
2022-08-17T01:18:02.165Z,100977.66
2022-08-17T01:22:55.134Z,100989.09
2022-08-17T01:27:45.744Z,100998.03
2022-08-17T01:32:36.302Z,100995.31
2022-08-17T01:37:32.730Z,100984.16
2022-08-17T01:42:33.603Z,100982.34
2022-08-17T01:47:23.290Z,100983.31
2022-08-17T01:52:15.058Z,100999.03
2022-08-17T01:57:06.226Z,101029.91
2022-08-17T02:01:59.057Z,101050.50
2022-08-17T02:06:53.214Z,101042.53
2022-08-17T02:11:44.059Z,101030.28
2022-08-17T02:16:38.301Z,100992.50
2022-08-17T02:21:32.932Z,101045.16
2022-08-17T02:26:24.022Z,101067.22
2022-08-17T02:31:16.902Z,101061.47
2022-08-17T02:36:08.988Z,101064.28
2022-08-17T02:41:01.810Z,101063.59
2022-08-17T02:45:51.508Z,101060.91
2022-08-17T02:50:51.609Z,101051.91
2022-08-17T02:55:44.260Z,101044.75
2022-08-17T03:00:41.433Z,101045.31
2022-08-17T03:05:34.277Z,101047.63
2022-08-17T03:10:25.698Z,101053.25
2022-08-17T03:15:20.383Z,101055.72
2022-08-17T03:20:14.938Z,101066.31
2022-08-17T03:25:06.683Z,101066.47
2022-08-17T03:30:00.599Z,101062.28
2022-08-17T03:34:50.592Z,101050.34
2022-08-17T03:39:43.118Z,101014.19
2022-08-17T03:44:32.874Z,101026.22
2022-08-17T03:49:35.273Z,101010.72
2022-08-17T03:54:37.869Z,101018.63
2022-08-17T03:59:31.208Z,101027.28
2022-08-17T04:04:27.528Z,101025.78
2022-08-17T04:09:17.999Z,101037.81
2022-08-17T04:14:09.354Z,101040.41
2022-08-17T04:19:01.631Z,101010.72
2022-08-17T04:23:51.572Z,101017.59
2022-08-17T04:28:42.297Z,101015.75
2022-08-17T04:33:32.718Z,101021.13
2022-08-17T04:38:27.388Z,101021.59
2022-08-17T04:43:20.285Z,101023.28
2022-08-17T04:48:09.950Z,101001.72
2022-08-17T04:53:00.615Z,101003.06
2022-08-17T04:57:53.307Z,101021.38
2022-08-17T05:02:49.819Z,101022.94
2022-08-17T05:07:40.571Z,101029.06
2022-08-17T05:12:30.258Z,101043.59
2022-08-17T05:17:22.876Z,101030.47
2022-08-17T05:22:12.774Z,101039.22
2022-08-17T05:27:06.504Z,101054.13
2022-08-17T05:31:58.238Z,101048.88
2022-08-17T05:36:50.528Z,101054.84
2022-08-17T05:41:40.814Z,101063.56
2022-08-17T05:46:36.003Z,101061.75
2022-08-17T05:52:12.517Z,101066.28
2022-08-17T05:57:33.126Z,101066.22
2022-08-17T06:02:32.157Z,101058.44
2022-08-17T06:07:34.620Z,101040.41
2022-08-17T06:12:46.933Z,101046.47
2022-08-17T06:17:38.710Z,101057.09
2022-08-17T06:22:37.115Z,101066.59
2022-08-17T06:27:35.932Z,101069.09
2022-08-17T06:32:27.355Z,101065.59
2022-08-17T06:37:33.411Z,101086.25
2022-08-17T06:42:55.125Z,101093.13
2022-08-17T06:47:57.648Z,101106.81
2022-08-17T06:52:56.829Z,101121.66
2022-08-17T06:57:54.000Z,101123.94
2022-08-17T07:02:53.212Z,101129.03
2022-08-17T07:08:07.260Z,101135.91
2022-08-17T07:13:15.436Z,101142.75
2022-08-17T07:18:07.242Z,101149.66
2022-08-17T07:23:12.387Z,101154.06
2022-08-17T07:28:09.218Z,101152.75
2022-08-17T07:33:02.947Z,101158.84
2022-08-17T07:38:06.071Z,101157.16
2022-08-17T07:43:31.486Z,101154.59
2022-08-17T07:48:25.405Z,101158.19
2022-08-17T07:53:20.893Z,101162.53
2022-08-17T07:58:14.517Z,101161.50
2022-08-17T08:03:17.960Z,101160.00
2022-08-17T08:08:23.568Z,101177.03
2022-08-17T08:13:17.981Z,101176.22
2022-08-17T08:18:53.587Z,101174.41
2022-08-17T08:23:49.434Z,101175.34
2022-08-17T08:28:48.141Z,101172.38
2022-08-17T08:33:52.043Z,101175.16
2022-08-17T08:38:54.012Z,101167.06
2022-08-17T08:43:53.265Z,101163.66
2022-08-17T08:49:12.273Z,101170.72
2022-08-17T08:54:09.837Z,101169.03
2022-08-17T08:59:10.762Z,101174.31
2022-08-17T09:04:25.135Z,101169.69
2022-08-17T09:09:31.375Z,101185.22
2022-08-17T09:14:29.681Z,101188.50
2022-08-17T09:19:31.833Z,101179.50
2022-08-17T09:24:30.402Z,101187.91
2022-08-17T09:29:35.345Z,101187.59
2022-08-17T09:34:36.947Z,101184.88
2022-08-17T09:39:35.526Z,101189.00
2022-08-17T09:44:39.824Z,101196.66
2022-08-17T09:49:40.915Z,101211.03
2022-08-17T09:54:41.280Z,101215.91
2022-08-17T09:59:56.941Z,101230.78
2022-08-17T10:05:02.540Z,101224.09
2022-08-17T10:10:01.980Z,101229.88
2022-08-17T10:15:17.478Z,101236.75
2022-08-17T10:20:16.288Z,101241.94
2022-08-17T10:25:24.879Z,101249.84
2022-08-17T10:30:23.208Z,101244.88
2022-08-17T10:35:40.076Z,101241.31
2022-08-17T10:40:43.945Z,101242.59
2022-08-17T10:45:41.644Z,101238.59
2022-08-17T10:51:01.346Z,101242.25
2022-08-17T10:56:27.917Z,101266.94
2022-08-17T11:01:19.796Z,101265.41
2022-08-17T11:06:21.829Z,101283.03
2022-08-17T11:11:25.970Z,101272.59
2022-08-17T11:16:48.143Z,101256.25
2022-08-17T11:22:03.539Z,101242.34
2022-08-17T11:27:12.170Z,101223.63
2022-08-17T11:32:11.231Z,101228.47
2022-08-17T11:37:36.063Z,101221.72
2022-08-17T11:43:00.928Z,101227.16
2022-08-17T11:48:28.293Z,101220.47
2022-08-17T11:54:03.596Z,101238.13
2022-08-17T11:59:07.390Z,101221.63
2022-08-17T12:04:29.809Z,101229.56
2022-08-17T12:09:34.651Z,101227.53
2022-08-17T12:15:05.872Z,101232.00
2022-08-17T12:19:45.416Z,101232.13
2022-08-17T12:24:52.382Z,101220.03
2022-08-17T12:29:47.405Z,101225.09
2022-08-17T12:34:45.796Z,101226.03
2022-08-17T12:39:37.945Z,101223.34
2022-08-17T12:44:32.185Z,101228.28
2022-08-17T12:49:30.712Z,101239.63
2022-08-17T12:54:30.766Z,101243.88
2022-08-17T12:59:30.155Z,101229.84
2022-08-17T13:04:23.590Z,101232.56
2022-08-17T13:09:35.783Z,101236.81
2022-08-17T13:14:32.592Z,101248.03
2022-08-17T13:19:39.918Z,101246.81
2022-08-17T13:24:38.467Z,101245.22
2022-08-17T13:29:35.771Z,101244.13
2022-08-17T13:35:04.692Z,101246.75
2022-08-17T13:40:01.836Z,101242.22
2022-08-17T13:44:58.651Z,101240.91
2022-08-17T13:49:50.362Z,101227.94
2022-08-17T13:59:55.011Z,101220.47
2022-08-17T14:04:48.276Z,101214.44
2022-08-17T14:09:41.741Z,101224.94
2022-08-17T14:14:34.330Z,101199.47
2022-08-17T14:19:31.908Z,101204.31
2022-08-17T14:24:28.549Z,101201.34
2022-08-17T14:29:19.269Z,101197.59
2022-08-17T14:34:11.284Z,101204.63
2022-08-17T14:39:05.429Z,101202.81
2022-08-17T14:43:57.568Z,101204.50
2022-08-17T14:48:57.402Z,101205.22
2022-08-17T14:53:48.968Z,101205.34
2022-08-17T14:58:43.105Z,101201.94
2022-08-17T15:03:35.495Z,101209.13
2022-08-17T15:08:25.493Z,101213.38
2022-08-17T15:13:21.301Z,101210.59
2022-08-17T15:18:13.857Z,101218.53
2022-08-17T15:23:04.025Z,101220.25
2022-08-17T15:27:57.122Z,101215.88
2022-08-17T15:32:54.512Z,101216.78
2022-08-17T15:37:48.830Z,101219.28
2022-08-17T15:42:41.879Z,101222.63
2022-08-17T15:47:35.572Z,101219.94
2022-08-17T15:52:28.079Z,101225.13
2022-08-17T15:57:21.514Z,101221.63
2022-08-17T16:03:44.716Z,101219.72
2022-08-17T16:07:27.002Z,101218.69
2022-08-17T16:12:24.767Z,101220.59
2022-08-17T16:17:39.744Z,101216.66
2022-08-17T16:22:37.604Z,101214.28
2022-08-17T16:27:32.571Z,101214.06
2022-08-17T16:32:31.461Z,101209.94
2022-08-17T16:37:23.354Z,101205.00
2022-08-17T16:42:27.665Z,101219.09
2022-08-17T16:47:20.214Z,101221.13
2022-08-17T16:52:12.668Z,101230.00
2022-08-17T16:57:04.589Z,101234.59
2022-08-17T17:01:54.369Z,101228.69
2022-08-17T17:06:57.768Z,101230.66
2022-08-17T17:11:52.325Z,101243.72
2022-08-17T17:16:51.683Z,101246.47
2022-08-17T17:21:52.665Z,101253.63
2022-08-17T17:27:09.021Z,101253.53
2022-08-17T17:32:10.083Z,101251.00
2022-08-17T17:37:10.361Z,101265.00
2022-08-17T17:42:07.925Z,101263.41
2022-08-17T17:47:02.170Z,101257.38
2022-08-17T17:52:10.004Z,101256.56
2022-08-17T17:57:19.201Z,101266.22
2022-08-17T18:02:37.083Z,101268.91
2022-08-17T18:07:42.205Z,101278.75
2022-08-17T18:12:43.781Z,101279.78
2022-08-17T18:17:39.575Z,101284.16
2022-08-17T18:22:35.253Z,101283.41
2022-08-17T18:27:30.485Z,101281.78
2022-08-17T18:32:43.811Z,101286.28
2022-08-17T18:37:45.183Z,101291.53
2022-08-17T18:42:39.730Z,101285.56
2022-08-17T18:47:33.455Z,101282.25
2022-08-17T18:52:30.702Z,101293.44
2022-08-17T18:57:33.579Z,101288.28
2022-08-17T19:07:42.627Z,101297.16
2022-08-17T19:12:40.783Z,101297.06
2022-08-17T19:17:39.620Z,101309.34
2022-08-17T19:22:41.676Z,101312.94
2022-08-17T19:27:46.476Z,101318.16
2022-08-17T19:32:47.148Z,101313.00
2022-08-17T19:37:46.091Z,101320.88
2022-08-17T19:42:50.283Z,101317.41
2022-08-17T19:47:55.199Z,101318.31
2022-08-17T19:52:54.641Z,101320.94
2022-08-17T19:58:02.191Z,101329.72
2022-08-17T20:02:58.482Z,101340.28
2022-08-17T20:07:58.569Z,101348.16
2022-08-17T20:12:56.746Z,101348.16
2022-08-17T20:17:52.836Z,101363.97
2022-08-17T20:23:01.794Z,101356.88
2022-08-17T20:28:02.891Z,101349.34
2022-08-17T20:32:59.635Z,101374.50
2022-08-17T20:37:56.175Z,101361.28
2022-08-17T20:42:46.869Z,101364.88
2022-08-17T20:48:07.492Z,101361.44
2022-08-17T20:52:59.207Z,101356.13
2022-08-17T20:57:51.017Z,101336.03
2022-08-17T21:02:45.382Z,101329.94
2022-08-17T21:07:55.948Z,101325.78
2022-08-17T21:12:50.392Z,101315.22
2022-08-17T21:17:53.216Z,101311.81
2022-08-17T21:22:57.804Z,101313.50
2022-08-17T21:27:58.700Z,101325.88
2022-08-17T21:33:23.966Z,101331.28
2022-08-17T21:38:17.442Z,101343.44
2022-08-17T21:43:20.095Z,101347.88
2022-08-17T21:48:17.638Z,101347.06
2022-08-17T21:53:09.249Z,101344.47
2022-08-17T21:58:13.464Z,101340.28
2022-08-17T22:03:10.518Z,101355.81
2022-08-17T22:08:16.761Z,101377.91
2022-08-17T22:13:16.454Z,101391.03
2022-08-17T22:18:11.760Z,101398.09
2022-08-17T22:23:29.002Z,101398.91
2022-08-17T22:28:40.065Z,101392.59
2022-08-17T22:33:39.782Z,101399.72
2022-08-17T22:38:36.771Z,101409.34
2022-08-17T22:43:34.947Z,101403.13
2022-08-17T22:48:29.265Z,101386.00
2022-08-17T22:53:34.789Z,101397.94
2022-08-17T22:58:40.297Z,101396.19
2022-08-17T23:03:30.520Z,101395.44
2022-08-17T23:08:21.800Z,101403.41
2022-08-17T23:13:13.405Z,101397.44
2022-08-17T23:18:06.361Z,101386.25
2022-08-17T23:22:56.078Z,101414.28
2022-08-17T23:27:47.788Z,101418.72
2022-08-17T23:32:37.742Z,101411.91
2022-08-17T23:37:45.972Z,101405.91
2022-08-17T23:42:43.328Z,101402.56
2022-08-17T23:47:37.575Z,101393.22
2022-08-17T23:52:28.227Z,101388.66
2022-08-17T23:57:33.649Z,101380.09
